EGMC/SEN METAR and TAF weather

Enter ICAO airport designator
Station Type Date Time Source
EGMC METAR 2018/10/22 17:20 UTC NOAA

EGMC 221720Z 29003KT CAVOK 08/03 Q1036


Station Type Date Time Source
EGMC Decoded METAR 2018/10/22 17:20 UTC NOAA

Southend-On-Sea , United Kingdom (EGMC) 51-34N 000-42E
Oct 22, 2018 - 01:20 PM EDT / 2018.10.22 1720 UTC
Wind: from the WNW (290 degrees) at 3 MPH (3 KT):0
Visibility: greater than 7 mile(s):0
Temperature: 46 F (8 C)
Dew Point: 37 F (3 C)
Relative Humidity: 70%
Pressure (altimeter): 30.59 in. Hg (1036 hPa)
ob: EGMC 221720Z 29003KT CAVOK 08/03 Q1036
cycle: 17

Station Type Date Time Source
EGMC TAF 2016/04/18 18:00 UTC NOAA

TAF EGMC 181658Z 1818/1903 28008KT 9999 BKN045


Example: see airport list